DAL8328 KIAD-KRDU
Flight info
| Callsign | DAL8328 |
|---|---|
| Flight time | 0h 44m |
| Altitude | 22000 |
| Route | JDUBB4 MELTN ALDAN4 |
| Aircraft | A20N/M-SDE2E3FGHIRWXY/LB1 |
Departure
| Time | 2026-05-07 00:16 |
|---|---|
| Airport | Washington Dulles International Airport (KIAD) |
Arrival
| Time | 2026-05-07 01:00 |
|---|---|
| Airport | Raleigh-Durham International Airport (KRDU) |
| Time | Latitude | Longitude | Altitude | Speed | Heading |
|---|---|---|---|---|---|
| 2026-05-06 23:59 | 38.94591 | -77.45054 | 303 ft | 0 kts | 211° |
| 2026-05-07 00:05 | 38.94581 | -77.45062 | 306 ft | 0 kts | 210° |
| 2026-05-07 00:07 | 38.94595 | -77.45051 | 303 ft | 0 kts | 210° |
| 2026-05-07 00:07 | 38.94599 | -77.45048 | 305 ft | 5 kts | 210° |
| 2026-05-07 00:07 | 38.94628 | -77.45027 | 304 ft | 5 kts | 210° |
| 2026-05-07 00:08 | 38.94638 | -77.45019 | 302 ft | 2 kts | 210° |
| 2026-05-07 00:08 | 38.94654 | -77.45006 | 304 ft | 3 kts | 232° |
| 2026-05-07 00:08 | 38.94661 | -77.44986 | 302 ft | 0 kts | 266° |
| 2026-05-07 00:09 | 38.94661 | -77.44992 | 302 ft | 3 kts | 273° |
| 2026-05-07 00:09 | 38.94664 | -77.45042 | 301 ft | 9 kts | 270° |
| 2026-05-07 00:10 | 38.94664 | -77.45144 | 301 ft | 14 kts | 270° |
| 2026-05-07 00:10 | 38.94666 | -77.45292 | 300 ft | 19 kts | 270° |
| 2026-05-07 00:10 | 38.94667 | -77.45433 | 298 ft | 0 kts | 270° |
| 2026-05-07 00:10 | 38.94667 | -77.45440 | 298 ft | 3 kts | 270° |
| 2026-05-07 00:11 | 38.94668 | -77.45491 | 300 ft | 0 kts | 271° |
| 2026-05-07 00:11 | 38.94668 | -77.45490 | 300 ft | 0 kts | 271° |
| 2026-05-07 00:11 | 38.94668 | -77.45501 | 299 ft | 4 kts | 270° |
| 2026-05-07 00:12 | 38.94663 | -77.45562 | 299 ft | 10 kts | 254° |
| 2026-05-07 00:12 | 38.94599 | -77.45606 | 300 ft | 13 kts | 185° |
| 2026-05-07 00:12 | 38.94501 | -77.45606 | 302 ft | 15 kts | 179° |
| 2026-05-07 00:12 | 38.94388 | -77.45609 | 303 ft | 17 kts | 181° |
| 2026-05-07 00:13 | 38.94256 | -77.45611 | 305 ft | 21 kts | 180° |
| 2026-05-07 00:13 | 38.94098 | -77.45614 | 304 ft | 24 kts | 179° |
| 2026-05-07 00:13 | 38.93919 | -77.45617 | 302 ft | 28 kts | 180° |
| 2026-05-07 00:13 | 38.93727 | -77.45620 | 296 ft | 18 kts | 188° |
| 2026-05-07 00:14 | 38.93593 | -77.45641 | 286 ft | 20 kts | 140° |
| 2026-05-07 00:14 | 38.93562 | -77.45573 | 286 ft | 1 kts | 113° |
| 2026-05-07 00:14 | 38.93547 | -77.45545 | 285 ft | 7 kts | 136° |
| 2026-05-07 00:14 | 38.93478 | -77.45544 | 282 ft | 14 kts | 196° |
| 2026-05-07 00:15 | 38.93392 | -77.45630 | 281 ft | 17 kts | 246° |
| 2026-05-07 00:15 | 38.93398 | -77.45689 | 282 ft | 0 kts | 287° |
| 2026-05-07 00:15 | 38.93437 | -77.45854 | 282 ft | 66 kts | 289° |
| 2026-05-07 00:15 | 38.93715 | -77.46812 | 299 ft | 158 kts | 290° |
| 2026-05-07 00:16 | 38.94190 | -77.48374 | 510 ft | 214 kts | 292° |
| 2026-05-07 00:16 | 38.94707 | -77.50441 | 716 ft | 272 kts | 276° |
| 2026-05-07 00:16 | 38.94437 | -77.52996 | 1170 ft | 311 kts | 246° |
| 2026-05-07 00:16 | 38.93143 | -77.55361 | 1705 ft | 340 kts | 221° |
| 2026-05-07 00:17 | 38.91033 | -77.56873 | 2426 ft | 357 kts | 195° |
| 2026-05-07 00:17 | 38.88544 | -77.57198 | 3386 ft | 365 kts | 178° |
| 2026-05-07 00:17 | 38.85980 | -77.57196 | 4356 ft | 370 kts | 178° |
| 2026-05-07 00:17 | 38.83421 | -77.57208 | 5337 ft | 375 kts | 178° |
| 2026-05-07 00:18 | 38.80792 | -77.57222 | 6272 ft | 380 kts | 178° |
| 2026-05-07 00:18 | 38.78197 | -77.57240 | 7100 ft | 355 kts | 178° |
| 2026-05-07 00:18 | 38.75840 | -77.57265 | 7660 ft | 335 kts | 178° |
| 2026-05-07 00:18 | 38.73454 | -77.57282 | 8220 ft | 347 kts | 178° |
| 2026-05-07 00:19 | 38.71027 | -77.57296 | 8774 ft | 350 kts | 179° |
| 2026-05-07 00:19 | 38.68581 | -77.57273 | 9332 ft | 353 kts | 176° |
| 2026-05-07 00:19 | 38.66119 | -77.57113 | 9819 ft | 355 kts | 175° |
| 2026-05-07 00:19 | 38.63637 | -77.56964 | 10379 ft | 358 kts | 176° |
| 2026-05-07 00:20 | 38.61137 | -77.56845 | 10955 ft | 361 kts | 176° |
| 2026-05-07 00:20 | 38.58615 | -77.56722 | 11532 ft | 364 kts | 177° |
| 2026-05-07 00:20 | 38.56068 | -77.56635 | 12111 ft | 367 kts | 178° |
| 2026-05-07 00:20 | 38.53500 | -77.56586 | 12689 ft | 371 kts | 178° |
| 2026-05-07 00:21 | 38.50911 | -77.56561 | 13268 ft | 374 kts | 179° |
| 2026-05-07 00:21 | 38.48302 | -77.56546 | 13845 ft | 377 kts | 179° |
| 2026-05-07 00:21 | 38.45667 | -77.56532 | 14423 ft | 380 kts | 179° |
| 2026-05-07 00:21 | 38.43913 | -77.56522 | 14805 ft | 382 kts | 182° |
| 2026-05-07 00:22 | 38.40388 | -77.57193 | 15576 ft | 387 kts | 201° |
| 2026-05-07 00:22 | 38.38731 | -77.58052 | 15949 ft | 389 kts | 210° |
| 2026-05-07 00:22 | 38.36430 | -77.59871 | 16507 ft | 392 kts | 218° |
| 2026-05-07 00:22 | 38.34194 | -77.61867 | 17078 ft | 394 kts | 217° |
| 2026-05-07 00:23 | 38.31911 | -77.63841 | 17656 ft | 398 kts | 216° |
| 2026-05-07 00:23 | 38.29601 | -77.65799 | 18242 ft | 401 kts | 216° |
| 2026-05-07 00:23 | 38.27265 | -77.67770 | 18826 ft | 404 kts | 216° |
| 2026-05-07 00:23 | 38.24911 | -77.69760 | 19401 ft | 408 kts | 216° |
| 2026-05-07 00:24 | 38.22536 | -77.71771 | 19981 ft | 411 kts | 216° |
| 2026-05-07 00:24 | 38.20144 | -77.73798 | 20559 ft | 415 kts | 215° |
| 2026-05-07 00:24 | 38.17733 | -77.75843 | 21137 ft | 420 kts | 215° |
| 2026-05-07 00:24 | 38.15281 | -77.77924 | 21693 ft | 428 kts | 215° |
| 2026-05-07 00:25 | 38.12770 | -77.80061 | 21946 ft | 442 kts | 215° |
| 2026-05-07 00:25 | 38.10169 | -77.82277 | 22006 ft | 459 kts | 215° |
| 2026-05-07 00:25 | 38.07469 | -77.84580 | 22007 ft | 474 kts | 215° |
| 2026-05-07 00:25 | 38.04725 | -77.86920 | 22007 ft | 476 kts | 215° |
| 2026-05-07 00:26 | 38.01971 | -77.89260 | 22008 ft | 476 kts | 215° |
| 2026-05-07 00:26 | 37.99216 | -77.91597 | 22007 ft | 476 kts | 214° |
| 2026-05-07 00:26 | 37.96462 | -77.93930 | 22008 ft | 476 kts | 214° |
| 2026-05-07 00:26 | 37.93747 | -77.96228 | 22007 ft | 476 kts | 214° |
| 2026-05-07 00:27 | 37.90990 | -77.98559 | 22007 ft | 476 kts | 214° |
| 2026-05-07 00:27 | 37.88234 | -78.00890 | 22007 ft | 476 kts | 214° |
| 2026-05-07 00:27 | 37.85483 | -78.03217 | 22007 ft | 476 kts | 214° |
| 2026-05-07 00:27 | 37.82728 | -78.05547 | 22007 ft | 476 kts | 214° |
| 2026-05-07 00:28 | 37.79975 | -78.07872 | 22007 ft | 476 kts | 214° |
| 2026-05-07 00:28 | 37.77217 | -78.10201 | 22007 ft | 476 kts | 214° |
| 2026-05-07 00:28 | 37.74460 | -78.12526 | 22007 ft | 476 kts | 214° |
| 2026-05-07 00:28 | 37.71706 | -78.14848 | 22007 ft | 476 kts | 214° |
| 2026-05-07 00:29 | 37.68952 | -78.17168 | 22007 ft | 476 kts | 214° |
| 2026-05-07 00:29 | 37.66197 | -78.19488 | 22007 ft | 476 kts | 214° |
| 2026-05-07 00:30 | 37.57932 | -78.26436 | 22007 ft | 476 kts | 214° |
| 2026-05-07 00:30 | 37.55176 | -78.28750 | 22008 ft | 476 kts | 214° |
| 2026-05-07 00:30 | 37.52419 | -78.31063 | 22007 ft | 476 kts | 214° |
| 2026-05-07 00:30 | 37.49665 | -78.33372 | 22007 ft | 476 kts | 214° |
| 2026-05-07 00:31 | 37.46906 | -78.35683 | 22007 ft | 476 kts | 214° |
| 2026-05-07 00:31 | 37.44145 | -78.37994 | 22007 ft | 476 kts | 214° |
| 2026-05-07 00:31 | 37.41389 | -78.40300 | 22007 ft | 476 kts | 214° |
| 2026-05-07 00:31 | 37.38629 | -78.42607 | 22007 ft | 476 kts | 214° |
| 2026-05-07 00:32 | 37.35909 | -78.44878 | 22008 ft | 476 kts | 214° |
| 2026-05-07 00:32 | 37.33146 | -78.47184 | 22007 ft | 476 kts | 214° |
| 2026-05-07 00:32 | 37.30386 | -78.49485 | 22008 ft | 476 kts | 214° |
| 2026-05-07 00:32 | 37.27624 | -78.51786 | 22008 ft | 476 kts | 214° |
| 2026-05-07 00:33 | 37.24860 | -78.54086 | 22007 ft | 476 kts | 214° |
| 2026-05-07 00:33 | 37.22101 | -78.56381 | 22007 ft | 476 kts | 214° |
| 2026-05-07 00:33 | 37.19335 | -78.58680 | 22007 ft | 477 kts | 214° |
| 2026-05-07 00:33 | 37.16571 | -78.60976 | 22007 ft | 477 kts | 214° |
| 2026-05-07 00:34 | 37.13810 | -78.63269 | 22007 ft | 477 kts | 213° |
| 2026-05-07 00:34 | 37.11167 | -78.65776 | 22007 ft | 476 kts | 222° |
| 2026-05-07 00:34 | 37.08950 | -78.68841 | 22011 ft | 476 kts | 232° |
| 2026-05-07 00:34 | 37.06970 | -78.72164 | 22007 ft | 476 kts | 233° |
| 2026-05-07 00:35 | 37.05001 | -78.75493 | 22007 ft | 476 kts | 233° |
| 2026-05-07 00:35 | 37.03032 | -78.78823 | 22007 ft | 476 kts | 233° |
| 2026-05-07 00:35 | 37.01065 | -78.82151 | 22008 ft | 476 kts | 233° |
| 2026-05-07 00:35 | 36.99098 | -78.85480 | 22007 ft | 476 kts | 233° |
| 2026-05-07 00:36 | 36.97131 | -78.88808 | 22008 ft | 476 kts | 233° |
| 2026-05-07 00:36 | 36.95165 | -78.92137 | 22007 ft | 476 kts | 233° |
| 2026-05-07 00:36 | 36.93357 | -78.95591 | 22007 ft | 472 kts | 242° |
| 2026-05-07 00:36 | 36.92161 | -78.99275 | 22006 ft | 444 kts | 254° |
| 2026-05-07 00:37 | 36.91666 | -79.02956 | 22006 ft | 418 kts | 268° |
| 2026-05-07 00:37 | 36.91668 | -79.06480 | 22006 ft | 394 kts | 270° |
| 2026-05-07 00:37 | 36.91705 | -79.09809 | 22005 ft | 372 kts | 270° |
| 2026-05-07 00:37 | 36.91742 | -79.13005 | 22008 ft | 369 kts | 271° |
| 2026-05-07 00:38 | 36.91779 | -79.16237 | 22007 ft | 373 kts | 271° |
| 2026-05-07 00:38 | 36.91817 | -79.19472 | 22007 ft | 372 kts | 271° |
| 2026-05-07 00:38 | 36.91856 | -79.22705 | 22007 ft | 372 kts | 271° |
| 2026-05-07 00:38 | 36.91895 | -79.25880 | 22005 ft | 357 kts | 271° |
| 2026-05-07 00:39 | 36.91932 | -79.28867 | 22006 ft | 341 kts | 271° |
| 2026-05-07 00:39 | 36.91970 | -79.31840 | 22008 ft | 345 kts | 271° |
| 2026-05-07 00:39 | 36.91773 | -79.34824 | 22008 ft | 346 kts | 255° |
| 2026-05-07 00:39 | 36.90751 | -79.37531 | 22008 ft | 346 kts | 233° |
| 2026-05-07 00:40 | 36.89002 | -79.39574 | 22009 ft | 347 kts | 211° |
| 2026-05-07 00:40 | 36.86752 | -79.40678 | 22011 ft | 358 kts | 190° |
| 2026-05-07 00:40 | 36.84197 | -79.40724 | 22007 ft | 376 kts | 171° |
| 2026-05-07 00:40 | 36.81721 | -79.39719 | 22006 ft | 375 kts | 152° |
| 2026-05-07 00:41 | 36.79628 | -79.37774 | 22011 ft | 384 kts | 135° |
| 2026-05-07 00:41 | 36.77774 | -79.35239 | 22007 ft | 402 kts | 131° |
| 2026-05-07 00:41 | 36.75892 | -79.32651 | 22007 ft | 402 kts | 133° |
| 2026-05-07 00:41 | 36.73922 | -79.30178 | 22007 ft | 402 kts | 136° |
| 2026-05-07 00:42 | 36.71874 | -79.27805 | 22007 ft | 402 kts | 138° |
| 2026-05-07 00:42 | 36.69782 | -79.25495 | 22007 ft | 402 kts | 139° |
| 2026-05-07 00:42 | 36.67676 | -79.23208 | 21899 ft | 402 kts | 139° |
| 2026-05-07 00:42 | 36.65575 | -79.20932 | 21453 ft | 397 kts | 139° |
| 2026-05-07 00:43 | 36.63494 | -79.18689 | 20705 ft | 394 kts | 139° |
| 2026-05-07 00:43 | 36.61421 | -79.16463 | 19716 ft | 391 kts | 139° |
| 2026-05-07 00:43 | 36.59369 | -79.14266 | 18693 ft | 387 kts | 139° |
| 2026-05-07 00:43 | 36.57323 | -79.12077 | 17668 ft | 389 kts | 139° |
| 2026-05-07 00:44 | 36.55283 | -79.09897 | 16644 ft | 384 kts | 139° |
| 2026-05-07 00:44 | 36.53271 | -79.07748 | 15622 ft | 378 kts | 139° |
| 2026-05-07 00:44 | 36.51288 | -79.05631 | 14577 ft | 373 kts | 139° |
| 2026-05-07 00:44 | 36.49323 | -79.03533 | 13339 ft | 373 kts | 139° |
| 2026-05-07 00:45 | 36.47351 | -79.01430 | 12064 ft | 373 kts | 139° |
| 2026-05-07 00:45 | 36.45381 | -78.99332 | 10811 ft | 372 kts | 139° |
| 2026-05-07 00:45 | 36.43437 | -78.97263 | 9959 ft | 361 kts | 139° |
| 2026-05-07 00:45 | 36.41585 | -78.95292 | 9482 ft | 341 kts | 139° |
| 2026-05-07 00:46 | 36.39867 | -78.93452 | 9215 ft | 319 kts | 137° |
| 2026-05-07 00:46 | 36.38343 | -78.91546 | 9059 ft | 295 kts | 134° |
| 2026-05-07 00:46 | 36.36976 | -78.89798 | 9001 ft | 270 kts | 134° |
| 2026-05-07 00:46 | 36.35721 | -78.88192 | 8885 ft | 250 kts | 134° |
| 2026-05-07 00:47 | 36.34526 | -78.86659 | 8484 ft | 246 kts | 134° |
| 2026-05-07 00:47 | 36.33349 | -78.85153 | 8145 ft | 238 kts | 134° |
| 2026-05-07 00:47 | 36.32159 | -78.83746 | 8018 ft | 239 kts | 146° |
| 2026-05-07 00:47 | 36.30620 | -78.83052 | 8009 ft | 237 kts | 176° |
| 2026-05-07 00:48 | 36.29037 | -78.83398 | 8011 ft | 237 kts | 206° |
| 2026-05-07 00:48 | 36.27801 | -78.84712 | 8009 ft | 236 kts | 238° |
| 2026-05-07 00:48 | 36.26958 | -78.86454 | 8006 ft | 235 kts | 241° |
| 2026-05-07 00:48 | 36.26136 | -78.88207 | 8009 ft | 235 kts | 241° |
| 2026-05-07 00:49 | 36.25318 | -78.89958 | 8008 ft | 235 kts | 241° |
| 2026-05-07 00:49 | 36.24495 | -78.91714 | 8007 ft | 235 kts | 238° |
| 2026-05-07 00:49 | 36.23324 | -78.93093 | 8005 ft | 236 kts | 208° |
| 2026-05-07 00:49 | 36.21738 | -78.93572 | 7840 ft | 238 kts | 178° |
| 2026-05-07 00:50 | 36.20154 | -78.93012 | 7435 ft | 242 kts | 148° |
| 2026-05-07 00:50 | 36.18955 | -78.91509 | 6802 ft | 254 kts | 119° |
| 2026-05-07 00:50 | 36.18484 | -78.89384 | 6261 ft | 260 kts | 91° |
| 2026-05-07 00:50 | 36.18550 | -78.87179 | 6060 ft | 252 kts | 88° |
| 2026-05-07 00:51 | 36.18608 | -78.85066 | 6006 ft | 238 kts | 88° |
| 2026-05-07 00:51 | 36.18651 | -78.83072 | 6010 ft | 230 kts | 88° |
| 2026-05-07 00:51 | 36.18692 | -78.81070 | 6008 ft | 232 kts | 88° |
| 2026-05-07 00:51 | 36.18734 | -78.79070 | 6008 ft | 233 kts | 88° |
| 2026-05-07 00:52 | 36.18777 | -78.77072 | 6008 ft | 232 kts | 88° |
| 2026-05-07 00:52 | 36.18820 | -78.75077 | 6007 ft | 232 kts | 88° |
| 2026-05-07 00:52 | 36.18864 | -78.73082 | 6008 ft | 232 kts | 88° |
| 2026-05-07 00:52 | 36.18920 | -78.71083 | 5876 ft | 233 kts | 86° |
| 2026-05-07 00:53 | 36.18990 | -78.69066 | 5463 ft | 237 kts | 86° |
| 2026-05-07 00:53 | 36.19054 | -78.67014 | 4913 ft | 240 kts | 87° |
| 2026-05-07 00:53 | 36.18889 | -78.64962 | 4360 ft | 241 kts | 110° |
| 2026-05-07 00:53 | 36.18011 | -78.63264 | 4095 ft | 229 kts | 130° |
| 2026-05-07 00:54 | 36.17015 | -78.61819 | 4010 ft | 224 kts | 130° |
| 2026-05-07 00:54 | 36.16001 | -78.60353 | 4002 ft | 224 kts | 130° |
| 2026-05-07 00:54 | 36.14818 | -78.59113 | 3991 ft | 225 kts | 156° |
| 2026-05-07 00:54 | 36.13298 | -78.58632 | 4005 ft | 227 kts | 170° |
| 2026-05-07 00:55 | 36.11756 | -78.58300 | 4011 ft | 224 kts | 170° |
| 2026-05-07 00:55 | 36.10217 | -78.57971 | 4011 ft | 225 kts | 170° |
| 2026-05-07 00:55 | 36.08676 | -78.57641 | 4010 ft | 225 kts | 170° |
| 2026-05-07 00:55 | 36.07129 | -78.57408 | 4011 ft | 224 kts | 184° |
| 2026-05-07 00:56 | 36.05592 | -78.57707 | 4002 ft | 224 kts | 198° |
| 2026-05-07 00:56 | 36.04337 | -78.58785 | 4004 ft | 223 kts | 229° |
| 2026-05-07 00:56 | 36.03355 | -78.60244 | 4000 ft | 214 kts | 230° |
| 2026-05-07 00:56 | 36.02392 | -78.61589 | 4001 ft | 207 kts | 227° |
| 2026-05-07 00:57 | 36.01385 | -78.62869 | 3760 ft | 207 kts | 225° |
| 2026-05-07 00:57 | 36.00377 | -78.64124 | 3460 ft | 206 kts | 226° |
| 2026-05-07 00:57 | 35.99372 | -78.65375 | 3176 ft | 205 kts | 225° |
| 2026-05-07 00:57 | 35.98369 | -78.66623 | 2899 ft | 204 kts | 225° |
| 2026-05-07 00:58 | 35.97371 | -78.67864 | 2626 ft | 203 kts | 225° |
| 2026-05-07 00:58 | 35.96413 | -78.69056 | 2365 ft | 189 kts | 225° |
| 2026-05-07 00:58 | 35.95528 | -78.70156 | 2124 ft | 176 kts | 226° |
| 2026-05-07 00:58 | 35.94666 | -78.71228 | 1894 ft | 178 kts | 225° |
| 2026-05-07 00:59 | 35.92923 | -78.73395 | 1419 ft | 177 kts | 225° |
| 2026-05-07 00:59 | 35.92054 | -78.74474 | 1183 ft | 177 kts | 225° |
| 2026-05-07 00:59 | 35.91190 | -78.75547 | 948 ft | 176 kts | 225° |
| 2026-05-07 01:00 | 35.90327 | -78.76618 | 718 ft | 176 kts | 225° |
| 2026-05-07 01:00 | 35.89469 | -78.77683 | 478 ft | 170 kts | 225° |
| 2026-05-07 01:00 | 35.88752 | -78.78572 | 428 ft | 107 kts | 226° |
| 2026-05-07 01:00 | 35.88514 | -78.78878 | 425 ft | 23 kts | 225° |
| 2026-05-07 01:01 | 35.88394 | -78.79022 | 426 ft | 23 kts | 219° |
| 2026-05-07 01:01 | 35.88248 | -78.79045 | 425 ft | 21 kts | 149° |
| 2026-05-07 01:01 | 35.88232 | -78.79027 | 424 ft | 0 kts | 131° |
| 2026-05-07 01:02 | 35.88231 | -78.79027 | 424 ft | 1 kts | 132° |
| 2026-05-07 01:02 | 35.88227 | -78.79028 | 416 ft | 0 kts | 175° |
| 2026-05-07 01:02 | 35.88225 | -78.79031 | 417 ft | 1 kts | 208° |
| 2026-05-07 01:03 | 35.88210 | -78.79053 | 424 ft | 5 kts | 235° |
| 2026-05-07 01:03 | 35.88182 | -78.79098 | 422 ft | 8 kts | 227° |
| 2026-05-07 01:03 | 35.88135 | -78.79154 | 428 ft | 11 kts | 224° |
| 2026-05-07 01:03 | 35.88073 | -78.79234 | 432 ft | 15 kts | 224° |
| 2026-05-07 01:04 | 35.87970 | -78.79278 | 423 ft | 18 kts | 186° |
| 2026-05-07 01:04 | 35.87866 | -78.79386 | 423 ft | 22 kts | 223° |
| 2026-05-07 01:04 | 35.87785 | -78.79478 | 424 ft | 12 kts | 213° |
| 2026-05-07 01:04 | 35.87729 | -78.79442 | 423 ft | 0 kts | 138° |